Time;durP1;ratioP1;P1;durP2;ratioP2;P2;SDS_P1;SDS_P2;PMS_P1;PMS_P2;Temp;Humidity;BMP_temperature;BMP_pressure;BME280_temperature;BME280_humidity;BME280_pressure;Samples;Min_cycle;Max_cycle;Signal;HPM_P1;HPM_P2
2022/03/20 00:01:57;;;;;;;;;0.00;0.00;14.70;99.90;;;;;;5067044;28;10746;-48
2022/03/20 00:04:27;;;;;;;;;0.00;0.00;14.80;99.90;;;;;;5070591;28;11260;-49
2022/03/20 00:06:59;;;;;;;;;0.00;0.00;14.80;99.90;;;;;;5072524;28;10785;-46
2022/03/20 00:09:30;;;;;;;;;1.00;1.00;14.80;99.90;;;;;;5079242;28;10976;-49
2022/03/20 00:12:01;;;;;;;;;0.00;0.00;14.70;99.90;;;;;;5072282;28;10930;-45
2022/03/20 00:14:31;;;;;;;;;0.00;0.00;14.80;99.90;;;;;;5079297;28;10822;-50
2022/03/20 00:17:01;;;;;;;;;1.00;1.00;14.80;99.90;;;;;;5067501;28;10799;-49
2022/03/20 00:19:32;;;;;;;;;0.50;0.50;14.80;99.90;;;;;;5070452;28;10811;-51
2022/03/20 00:22:04;;;;;;;;;0.00;0.00;14.80;99.90;;;;;;5069784;28;10702;-48
2022/03/20 00:24:35;;;;;;;;;0.00;0.00;14.80;99.90;;;;;;5067822;28;10761;-49
2022/03/20 00:27:06;;;;;;;;;0.00;0.00;14.80;99.90;;;;;;5067848;28;10799;-46
2022/03/20 00:29:38;;;;;;;;;0.00;0.00;14.80;99.90;;;;;;5084366;27;10790;-46
2022/03/20 00:32:11;;;;;;;;;0.50;0.50;14.80;99.90;;;;;;5070523;28;10884;-46
2022/03/20 00:34:41;;;;;;;;;0.00;0.00;14.80;99.90;;;;;;5073280;28;10953;-47
2022/03/20 00:37:13;;;;;;;;;0.00;0.00;14.80;99.90;;;;;;5074256;28;10880;-45
2022/03/20 00:39:44;;;;;;;;;1.00;0.00;14.80;99.90;;;;;;5070428;28;11122;-49
2022/03/20 00:42:15;;;;;;;;;0.00;0.00;14.70;99.90;;;;;;5073598;28;10774;-48
2022/03/20 00:44:46;;;;;;;;;0.00;0.00;14.70;99.90;;;;;;5079904;28;10719;-44
2022/03/20 00:47:17;;;;;;;;;2.25;1.00;14.80;99.90;;;;;;5071353;28;10763;-45
2022/03/20 00:49:49;;;;;;;;;0.00;0.00;14.80;99.90;;;;;;5068635;28;11624;-44
2022/03/20 00:52:19;;;;;;;;;0.00;0.00;14.80;99.90;;;;;;5077272;28;11465;-47
2022/03/20 00:54:49;;;;;;;;;0.00;0.00;14.80;99.90;;;;;;5074342;28;10809;-48
2022/03/20 00:57:21;;;;;;;;;0.00;0.00;14.70;99.90;;;;;;5082020;28;10789;-47
2022/03/20 00:59:52;;;;;;;;;1.75;0.00;14.70;99.90;;;;;;5073928;28;10673;-48
2022/03/20 01:02:23;;;;;;;;;0.00;0.00;14.70;99.90;;;;;;5074771;28;10683;-49
2022/03/20 01:04:54;;;;;;;;;0.00;0.00;14.70;99.90;;;;;;5075212;28;10671;-45
2022/03/20 01:07:25;;;;;;;;;1.00;0.25;14.70;99.90;;;;;;5072276;28;10779;-45
2022/03/20 01:09:55;;;;;;;;;0.00;0.00;14.70;99.90;;;;;;5079334;28;10865;-48
2022/03/20 01:12:26;;;;;;;;;0.00;0.00;14.70;99.90;;;;;;5076395;28;10730;-47
2022/03/20 01:14:57;;;;;;;;;0.00;0.00;14.70;99.90;;;;;;5082835;28;10871;-49
2022/03/20 01:17:28;;;;;;;;;0.00;0.00;14.70;99.90;;;;;;5074847;28;10723;-47
2022/03/20 01:19:58;;;;;;;;;0.00;0.00;14.70;99.90;;;;;;5079997;28;10775;-46
2022/03/20 01:22:28;;;;;;;;;0.00;0.00;14.70;99.90;;;;;;5084774;28;11178;-46
2022/03/20 01:25:00;;;;;;;;;0.00;0.00;14.70;99.90;;;;;;5080496;28;10781;-47
2022/03/20 01:27:31;;;;;;;;;0.00;0.00;14.70;99.90;;;;;;5075020;28;10752;-46
2022/03/20 01:30:03;;;;;;;;;0.25;0.25;14.70;99.90;;;;;;5077717;28;10779;-46
2022/03/20 01:32:35;;;;;;;;;0.00;0.00;14.80;99.90;;;;;;5079814;28;10836;-46
2022/03/20 01:35:08;;;;;;;;;0.00;0.00;14.70;99.90;;;;;;5078411;28;10870;-47
2022/03/20 01:37:41;;;;;;;;;0.00;0.00;14.70;99.90;;;;;;5071582;28;11675;-48
2022/03/20 01:40:11;;;;;;;;;0.50;0.50;14.60;99.90;;;;;;5079614;28;11013;-45
2022/03/20 01:42:44;;;;;;;;;0.00;0.00;14.70;99.90;;;;;;5076522;28;10782;-48
2022/03/20 01:45:17;;;;;;;;;0.00;0.00;14.70;99.90;;;;;;5081499;27;10957;-48
2022/03/20 01:47:50;;;;;;;;;0.00;0.00;14.70;99.90;;;;;;5071791;28;11865;-46
2022/03/20 01:50:32;;;;;;;;;0.00;0.00;14.70;99.90;;;;;;5074699;28;11116;-46
2022/03/20 01:53:09;;;;;;;;;0.00;0.00;14.70;99.90;;;;;;5075125;28;10926;-50
2022/03/20 01:55:41;;;;;;;;;0.00;0.00;14.60;99.90;;;;;;5077069;28;11578;-47
2022/03/20 01:58:11;;;;;;;;;0.00;0.00;14.60;99.90;;;;;;5076934;28;11441;-47
2022/03/20 02:00:42;;;;;;;;;0.00;0.00;14.60;99.90;;;;;;5075456;28;11618;-51
2022/03/20 02:03:12;;;;;;;;;0.00;0.00;14.60;99.90;;;;;;5068705;28;11178;-49
2022/03/20 02:05:44;;;;;;;;;0.00;0.00;14.60;99.90;;;;;;5071847;28;11126;-47
2022/03/20 02:08:16;;;;;;;;;0.00;0.00;14.50;99.90;;;;;;5071187;28;11578;-50
2022/03/20 02:10:47;;;;;;;;;0.00;0.00;14.50;99.90;;;;;;5074019;28;11315;-48
2022/03/20 02:13:26;;;;;;;;;0.25;0.25;14.50;99.90;;;;;;5087097;28;11106;-46
2022/03/20 02:15:56;;;;;;;;;2.00;1.00;14.50;99.90;;;;;;5075800;28;11431;-48
2022/03/20 02:18:27;;;;;;;;;0.00;0.00;14.40;99.90;;;;;;5073025;28;11517;-50
2022/03/20 02:21:03;;;;;;;;;0.75;0.75;14.40;99.90;;;;;;5076557;28;11476;-46
2022/03/20 02:23:40;;;;;;;;;1.00;1.00;14.30;99.90;;;;;;5074291;28;10901;-48
2022/03/20 02:26:11;;;;;;;;;1.75;0.00;14.30;99.90;;;;;;5070487;28;11228;-47
2022/03/20 02:28:41;;;;;;;;;1.00;1.00;14.30;99.90;;;;;;5073456;28;11017;-50
2022/03/20 02:31:12;;;;;;;;;1.50;1.00;14.30;99.90;;;;;;5075204;28;11040;-45
2022/03/20 02:33:43;;;;;;;;;0.00;0.00;14.30;99.90;;;;;;5073390;28;11165;-47
2022/03/20 02:36:17;;;;;;;;;1.25;1.25;14.20;99.90;;;;;;5075561;28;11163;-49
2022/03/20 02:38:47;;;;;;;;;1.75;1.75;14.20;99.90;;;;;;5074032;28;11370;-48
2022/03/20 02:41:18;;;;;;;;;2.25;2.25;14.20;99.90;;;;;;5071257;28;11468;-47
2022/03/20 02:43:51;;;;;;;;;4.25;3.00;14.30;99.90;;;;;;5075972;28;12276;-47
2022/03/20 02:46:22;;;;;;;;;4.25;4.00;14.30;99.90;;;;;;5074917;28;11456;-46
2022/03/20 02:48:54;;;;;;;;;4.75;3.75;14.30;99.90;;;;;;5070442;28;11425;-45
2022/03/20 02:51:24;;;;;;;;;3.00;3.00;14.30;99.90;;;;;;5076430;28;11443;-48
2022/03/20 02:53:57;;;;;;;;;5.00;3.00;14.30;99.90;;;;;;5080287;28;11419;-48
2022/03/20 02:56:29;;;;;;;;;4.75;4.00;14.20;99.90;;;;;;5075316;28;11416;-46
2022/03/20 02:59:02;;;;;;;;;4.00;4.00;14.30;99.90;;;;;;5080966;28;11430;-48
2022/03/20 03:01:32;;;;;;;;;2.75;2.75;14.20;99.90;;;;;;5073837;28;11428;-47
2022/03/20 03:04:04;;;;;;;;;4.75;3.75;14.20;99.90;;;;;;5073548;28;11474;-46
2022/03/20 03:06:35;;;;;;;;;2.75;2.00;14.20;99.90;;;;;;5071251;27;11487;-45
2022/03/20 03:11:55;;;;;;;;;5.00;3.75;14.10;99.90;;;;;;5068523;28;11419;-47
2022/03/20 03:17:14;;;;;;;;;3.25;3.25;14.20;99.90;;;;;;5073206;28;11497;-50
2022/03/20 03:19:44;;;;;;;;;5.25;2.25;14.20;99.90;;;;;;5081212;28;11410;-53
2022/03/20 03:22:16;;;;;;;;;4.50;4.50;14.10;99.90;;;;;;5068567;28;11455;-45
2022/03/20 03:24:47;;;;;;;;;4.25;4.25;14.20;99.90;;;;;;5076225;28;11434;-46
2022/03/20 03:27:18;;;;;;;;;4.75;3.00;14.20;99.90;;;;;;5078679;28;11427;-46
2022/03/20 03:29:48;;;;;;;;;3.50;3.25;14.20;99.90;;;;;;5076160;28;11458;-47
2022/03/20 03:32:20;;;;;;;;;2.25;2.25;14.20;99.90;;;;;;5072735;28;11452;-45
2022/03/20 03:37:41;;;;;;;;;3.75;3.75;14.10;99.90;;;;;;5068649;27;11443;-47
2022/03/20 03:40:12;;;;;;;;;6.75;4.50;14.10;99.90;;;;;;5072774;28;11554;-45
2022/03/20 03:42:42;;;;;;;;;3.50;3.50;14.10;99.90;;;;;;5068703;28;11486;-46
2022/03/20 03:45:12;;;;;;;;;5.00;4.00;14.10;99.90;;;;;;5074936;28;11487;-48
2022/03/20 03:47:42;;;;;;;;;7.75;4.50;14.10;99.90;;;;;;5064927;28;11448;-47
2022/03/20 03:50:14;;;;;;;;;4.00;3.75;14.20;99.90;;;;;;5074048;28;11465;-45
2022/03/20 03:52:47;;;;;;;;;5.00;5.00;14.10;99.90;;;;;;5067099;28;12209;-50
2022/03/20 03:55:18;;;;;;;;;5.25;5.25;14.10;99.90;;;;;;5069669;28;11450;-49
2022/03/20 03:57:51;;;;;;;;;6.00;4.75;14.00;99.90;;;;;;5063594;28;11419;-46
2022/03/20 04:00:21;;;;;;;;;5.25;3.75;14.00;99.90;;;;;;5073894;28;11465;-49
2022/03/20 04:02:53;;;;;;;;;5.00;5.00;14.00;99.90;;;;;;5073341;28;11432;-47
2022/03/20 04:05:24;;;;;;;;;5.75;5.00;13.90;99.90;;;;;;5071024;28;11480;-46
2022/03/20 04:07:57;;;;;;;;;6.50;2.25;14.00;99.90;;;;;;5066591;28;11483;-48
2022/03/20 04:10:27;;;;;;;;;3.00;3.00;14.00;99.90;;;;;;5065697;28;11453;-49
2022/03/20 04:12:58;;;;;;;;;3.75;3.75;14.00;99.90;;;;;;5066196;28;11566;-49
2022/03/20 04:15:31;;;;;;;;;5.00;4.25;14.00;99.90;;;;;;5073244;28;11513;-44
2022/03/20 04:18:03;;;;;;;;;4.50;3.00;14.00;99.90;;;;;;5066415;28;11448;-45
2022/03/20 04:20:34;;;;;;;;;4.25;2.00;14.00;99.90;;;;;;5065465;28;12154;-48
2022/03/20 04:25:55;;;;;;;;;4.00;4.00;14.00;99.90;;;;;;5068037;28;11402;-48
2022/03/20 04:28:26;;;;;;;;;3.25;3.25;14.00;99.90;;;;;;5077017;28;11474;-48
2022/03/20 04:30:56;;;;;;;;;3.00;3.00;14.10;99.90;;;;;;5063607;28;12205;-47
2022/03/20 04:33:31;;;;;;;;;4.50;4.50;14.00;99.90;;;;;;5032885;28;11419;-46
2022/03/20 04:36:03;;;;;;;;;3.25;3.25;14.00;99.90;;;;;;5073096;28;11442;-47
2022/03/20 04:38:34;;;;;;;;;7.75;5.00;14.00;99.90;;;;;;5071573;28;11434;-46
2022/03/20 04:41:05;;;;;;;;;5.50;5.50;14.10;99.90;;;;;;5070206;28;11608;-47
2022/03/20 04:43:36;;;;;;;;;2.25;2.25;14.10;99.90;;;;;;5080824;28;11462;-47
2022/03/20 04:46:07;;;;;;;;;5.75;5.00;14.10;99.90;;;;;;5066021;28;12248;-46
2022/03/20 04:59:55;;;;;;;;;3.00;2.00;14.10;99.90;;;;;;5068387;28;11417;-47
2022/03/20 05:02:27;;;;;;;;;5.75;3.75;14.10;99.90;;;;;;5076610;28;11638;-48
2022/03/20 05:04:58;;;;;;;;;5.25;5.25;14.10;99.90;;;;;;5071214;28;11450;-46
2022/03/20 05:07:29;;;;;;;;;5.75;5.00;14.10;99.90;;;;;;5073431;28;11496;-48
2022/03/20 05:15:37;;;;;;;;;4.50;3.25;14.10;99.90;;;;;;5071107;28;11855;-48
2022/03/20 05:18:08;;;;;;;;;2.00;2.00;14.20;99.90;;;;;;5072872;28;11386;-49
2022/03/20 05:20:38;;;;;;;;;2.00;2.00;14.20;99.90;;;;;;5078345;27;12189;-45
2022/03/20 05:23:08;;;;;;;;;4.00;4.00;14.20;99.90;;;;;;5079378;28;12186;-48
2022/03/20 05:25:39;;;;;;;;;3.00;3.00;14.20;99.90;;;;;;5071299;28;11477;-50
2022/03/20 05:28:10;;;;;;;;;6.00;4.00;14.20;99.90;;;;;;5073071;28;11590;-47
2022/03/20 05:30:42;;;;;;;;;3.75;2.75;14.20;99.90;;;;;;5079322;28;11436;-48
2022/03/20 05:33:14;;;;;;;;;0.25;0.00;14.20;99.90;;;;;;5076178;28;12144;-50
2022/03/20 05:35:47;;;;;;;;;2.00;1.00;14.10;99.90;;;;;;5070078;28;11136;-51
2022/03/20 05:38:19;;;;;;;;;3.50;1.00;14.10;99.90;;;;;;5076542;28;11113;-48
2022/03/20 05:40:49;;;;;;;;;1.50;1.50;14.10;99.90;;;;;;5071808;28;11605;-46
2022/03/20 05:43:21;;;;;;;;;3.50;2.00;14.10;99.90;;;;;;5078867;28;11198;-49
2022/03/20 05:45:52;;;;;;;;;1.00;1.00;14.00;99.90;;;;;;5072782;28;11567;-52
2022/03/20 05:48:22;;;;;;;;;2.00;2.00;14.00;99.90;;;;;;5078790;28;11242;-47
2022/03/20 05:50:53;;;;;;;;;2.00;2.00;14.00;99.90;;;;;;5067417;28;11528;-49
2022/03/20 05:53:27;;;;;;;;;1.00;1.00;14.00;99.90;;;;;;5069154;28;12218;-48
2022/03/20 05:58:47;;;;;;;;;2.00;2.00;13.90;99.90;;;;;;5075005;28;11437;-47
2022/03/20 06:01:20;;;;;;;;;1.75;1.00;13.90;99.90;;;;;;5072484;28;11428;-50
2022/03/20 06:03:50;;;;;;;;;1.00;1.00;14.00;99.90;;;;;;5070364;28;11376;-48
2022/03/20 06:06:20;;;;;;;;;3.00;2.00;14.00;99.90;;;;;;5065643;28;11456;-49
2022/03/20 06:08:52;;;;;;;;;1.00;1.00;13.90;99.90;;;;;;5066334;28;11450;-50
2022/03/20 06:11:23;;;;;;;;;0.75;0.75;14.00;99.90;;;;;;5040846;28;11504;-48
2022/03/20 06:13:53;;;;;;;;;2.00;2.00;14.00;99.90;;;;;;5074207;28;11436;-49
2022/03/20 06:16:24;;;;;;;;;3.25;2.50;14.00;99.90;;;;;;5070613;27;11437;-46
2022/03/20 06:18:56;;;;;;;;;4.75;3.00;14.00;99.90;;;;;;5082444;28;11186;-50
2022/03/20 06:21:27;;;;;;;;;1.75;1.75;14.00;99.90;;;;;;5076673;28;11430;-47
2022/03/20 06:23:58;;;;;;;;;5.25;2.75;13.90;99.90;;;;;;5071575;28;11416;-46
2022/03/20 06:26:28;;;;;;;;;3.00;2.00;13.90;99.90;;;;;;5077211;28;11523;-47
2022/03/20 06:28:58;;;;;;;;;5.00;3.50;13.80;99.90;;;;;;5072465;28;11443;-46
2022/03/20 06:31:29;;;;;;;;;4.00;4.00;13.70;99.90;;;;;;5077234;28;11450;-48
2022/03/20 06:34:00;;;;;;;;;5.25;4.00;13.70;99.90;;;;;;5076843;28;11370;-46
2022/03/20 06:36:31;;;;;;;;;4.25;4.25;13.70;99.90;;;;;;5077994;28;11447;-46
2022/03/20 06:39:02;;;;;;;;;4.75;3.25;13.80;99.90;;;;;;5076558;28;11424;-46
2022/03/20 06:41:33;;;;;;;;;2.50;2.00;13.80;99.90;;;;;;5073193;28;11500;-49
2022/03/20 06:44:04;;;;;;;;;2.50;2.50;13.70;99.90;;;;;;5068457;28;12214;-47
2022/03/20 06:46:37;;;;;;;;;2.25;2.25;13.70;99.90;;;;;;5073198;28;11451;-49
2022/03/20 06:49:10;;;;;;;;;3.00;3.00;13.70;99.90;;;;;;5067619;28;11572;-48
2022/03/20 06:51:41;;;;;;;;;2.75;2.75;13.60;99.90;;;;;;5068969;28;11443;-49
2022/03/20 06:54:14;;;;;;;;;3.00;3.00;13.70;99.90;;;;;;5072864;28;11435;-47
2022/03/20 06:56:44;;;;;;;;;2.00;2.00;13.70;99.90;;;;;;5085194;28;11463;-47
2022/03/20 06:59:16;;;;;;;;;3.50;3.50;13.70;99.90;;;;;;5082130;28;11444;-46
2022/03/20 07:01:46;;;;;;;;;4.25;4.25;13.60;99.90;;;;;;5084909;28;11411;-46
2022/03/20 07:04:18;;;;;;;;;4.50;3.25;13.60;99.90;;;;;;5071969;28;11450;-46
2022/03/20 07:06:48;;;;;;;;;2.75;2.00;13.60;99.90;;;;;;5080047;28;11486;-46
2022/03/20 07:09:18;;;;;;;;;3.00;1.75;13.60;99.90;;;;;;5076648;28;11550;-49
2022/03/20 07:11:48;;;;;;;;;2.00;2.00;13.60;99.90;;;;;;5079132;28;11465;-48
2022/03/20 07:14:20;;;;;;;;;1.00;1.00;13.60;99.90;;;;;;5073830;28;11499;-47
2022/03/20 07:16:52;;;;;;;;;3.00;1.00;13.60;99.90;;;;;;5069299;28;12151;-48
2022/03/20 07:19:24;;;;;;;;;3.00;3.00;13.50;99.90;;;;;;5078366;28;11615;-47
2022/03/20 07:21:54;;;;;;;;;2.50;2.50;13.50;99.90;;;;;;5074564;28;12138;-48
2022/03/20 07:24:25;;;;;;;;;3.25;3.25;13.50;99.90;;;;;;5073752;28;11472;-50
2022/03/20 07:29:45;;;;;;;;;3.75;2.25;13.50;99.90;;;;;;5071222;28;12184;-46
2022/03/20 07:32:18;;;;;;;;;2.50;2.50;13.50;99.90;;;;;;5068511;28;11403;-47
2022/03/20 07:34:49;;;;;;;;;1.75;1.50;13.50;99.90;;;;;;5076220;28;11498;-47
2022/03/20 07:37:21;;;;;;;;;1.75;1.75;13.40;99.90;;;;;;5068979;28;11463;-48
2022/03/20 07:39:53;;;;;;;;;3.00;3.00;13.40;99.90;;;;;;5075344;28;11426;-48
2022/03/20 07:42:26;;;;;;;;;4.00;4.00;13.40;99.90;;;;;;5075051;28;12258;-48
2022/03/20 07:44:55;;;;;;;;;2.00;2.00;13.40;99.90;;;;;;5080543;28;11492;-46
2022/03/20 07:47:27;;;;;;;;;3.00;1.75;13.40;99.90;;;;;;5079836;28;11444;-49
2022/03/20 07:50:07;;;;;;;;;0.50;0.25;13.30;99.90;;;;;;5076446;28;12187;-49
2022/03/20 07:52:38;;;;;;;;;1.25;1.25;13.30;99.90;;;;;;5073245;28;11462;-48
2022/03/20 07:55:08;;;;;;;;;0.75;0.75;13.30;99.90;;;;;;5073470;28;11470;-47
2022/03/20 07:57:41;;;;;;;;;2.50;1.50;13.30;99.90;;;;;;5072497;28;11571;-47
2022/03/20 08:00:11;;;;;;;;;1.00;1.00;13.30;99.90;;;;;;5075914;28;11423;-49
2022/03/20 08:02:44;;;;;;;;;1.75;1.75;13.30;99.90;;;;;;5078261;28;11437;-49
2022/03/20 08:05:15;;;;;;;;;1.00;1.00;13.30;99.90;;;;;;5069114;28;11421;-50
2022/03/20 08:07:45;;;;;;;;;1.00;1.00;13.20;99.90;;;;;;5065880;28;12441;-49
2022/03/20 08:10:16;;;;;;;;;0.25;0.25;13.20;99.90;;;;;;5080701;28;11598;-49
2022/03/20 08:12:47;;;;;;;;;1.00;1.00;13.20;99.90;;;;;;5078439;28;12515;-47
2022/03/20 08:15:19;;;;;;;;;2.75;1.00;13.10;99.90;;;;;;5066938;28;11423;-47
2022/03/20 08:17:51;;;;;;;;;0.50;0.50;13.10;99.90;;;;;;5066916;28;11397;-48
2022/03/20 08:20:22;;;;;;;;;1.00;1.00;13.10;99.90;;;;;;5072552;28;12157;-49
2022/03/20 08:22:52;;;;;;;;;1.50;1.50;13.10;99.90;;;;;;5067342;28;11437;-47
2022/03/20 08:25:26;;;;;;;;;2.00;2.00;13.10;99.90;;;;;;5073354;28;11444;-49
2022/03/20 08:27:56;;;;;;;;;1.25;1.25;13.10;99.90;;;;;;5069754;28;12266;-47
2022/03/20 08:30:28;;;;;;;;;1.00;1.00;13.10;99.90;;;;;;5072182;28;11435;-46
2022/03/20 08:32:58;;;;;;;;;1.50;1.50;13.00;99.90;;;;;;5076450;28;11590;-48
2022/03/20 08:35:29;;;;;;;;;3.50;3.50;13.00;99.90;;;;;;5075463;28;11506;-47
2022/03/20 08:38:00;;;;;;;;;6.75;5.25;13.00;99.90;;;;;;5069069;28;11516;-47
2022/03/20 08:40:33;;;;;;;;;5.50;5.50;13.00;99.90;;;;;;5076416;28;11504;-49
2022/03/20 08:43:04;;;;;;;;;4.25;4.25;12.90;99.90;;;;;;5069061;28;11507;-48
2022/03/20 08:45:35;;;;;;;;;5.00;5.00;12.90;99.90;;;;;;5077711;28;11484;-45
2022/03/20 08:48:05;;;;;;;;;2.00;2.00;12.90;99.90;;;;;;5072728;28;11508;-48
2022/03/20 08:50:37;;;;;;;;;3.00;1.00;12.90;99.90;;;;;;5078195;28;11488;-45
2022/03/20 08:53:08;;;;;;;;;2.00;2.00;12.90;99.90;;;;;;5075394;28;11450;-46
2022/03/20 08:55:39;;;;;;;;;1.50;1.50;12.80;99.90;;;;;;5076653;28;11491;-46
2022/03/20 08:58:11;;;;;;;;;1.50;1.50;12.80;99.90;;;;;;5081386;28;11510;-46
2022/03/20 09:00:43;;;;;;;;;1.00;0.00;12.80;99.90;;;;;;5079525;28;11433;-49
2022/03/20 09:03:14;;;;;;;;;1.00;1.00;12.80;99.90;;;;;;5071719;28;11438;-46
2022/03/20 09:05:45;;;;;;;;;0.75;0.75;12.70;99.90;;;;;;5074967;28;11567;-46
2022/03/20 09:08:15;;;;;;;;;1.00;1.00;12.70;99.90;;;;;;5066277;28;11437;-48
2022/03/20 09:10:53;;;;;;;;;2.00;1.00;12.70;99.90;;;;;;5075663;28;12155;-46
2022/03/20 09:13:24;;;;;;;;;1.00;1.00;12.70;99.90;;;;;;5073791;28;11468;-46
2022/03/20 09:19:07;;;;;;;;;0.00;0.00;12.70;99.90;;;;;;5075124;28;11457;-45
2022/03/20 09:21:39;;;;;;;;;1.00;1.00;12.70;99.90;;;;;;5080744;28;11449;-47
2022/03/20 09:24:08;;;;;;;;;0.50;0.25;12.70;99.90;;;;;;5081100;28;11450;-48
2022/03/20 09:26:38;;;;;;;;;1.00;1.00;12.60;99.90;;;;;;5073437;28;12130;-46
2022/03/20 09:29:10;;;;;;;;;1.00;1.00;12.60;99.90;;;;;;5072712;28;11384;-49
2022/03/20 09:31:40;;;;;;;;;0.00;0.00;12.60;99.90;;;;;;5074096;28;11456;-48
2022/03/20 09:34:15;;;;;;;;;0.50;0.50;12.60;99.90;;;;;;5073097;28;11443;-47
2022/03/20 09:36:46;;;;;;;;;0.00;0.00;12.60;99.90;;;;;;5076154;28;11462;-47
2022/03/20 09:39:15;;;;;;;;;0.00;0.00;12.50;99.90;;;;;;5066372;28;11473;-46
2022/03/20 09:41:49;;;;;;;;;0.75;0.75;12.60;99.90;;;;;;5069651;28;12182;-47
2022/03/20 09:44:23;;;;;;;;;1.25;1.00;12.60;99.90;;;;;;5077043;27;11449;-45
2022/03/20 09:46:53;;;;;;;;;1.00;1.00;12.60;99.90;;;;;;5068938;28;12219;-50
2022/03/20 09:49:25;;;;;;;;;0.00;0.00;12.60;99.90;;;;;;5078581;28;11491;-48
2022/03/20 09:51:58;;;;;;;;;0.75;0.75;12.50;99.90;;;;;;5073738;28;11459;-45
2022/03/20 09:54:29;;;;;;;;;0.00;0.00;12.50;99.90;;;;;;5066538;27;11522;-45
2022/03/20 09:57:05;;;;;;;;;2.00;0.50;12.40;99.90;;;;;;5077932;28;11465;-47
2022/03/20 09:59:39;;;;;;;;;0.00;0.00;12.40;99.90;;;;;;5074216;28;11517;-48
2022/03/20 10:02:11;;;;;;;;;2.75;1.50;12.40;99.90;;;;;;5071747;28;11461;-45
2022/03/20 10:04:55;;;;;;;;;1.00;1.00;12.40;99.90;;;;;;5068824;28;11532;-47
2022/03/20 10:07:30;;;;;;;;;1.00;1.00;12.30;99.90;;;;;;5071719;28;11534;-47
2022/03/20 10:10:14;;;;;;;;;2.50;1.00;12.30;99.90;;;;;;5076582;28;11476;-45
2022/03/20 10:12:53;;;;;;;;;1.50;0.00;12.30;99.90;;;;;;5074967;28;11487;-46
2022/03/20 10:15:39;;;;;;;;;1.00;1.00;12.30;99.90;;;;;;5069767;28;12274;-48
2022/03/20 10:18:20;;;;;;;;;1.25;1.25;12.30;99.90;;;;;;5070728;28;11492;-45
2022/03/20 10:20:59;;;;;;;;;1.00;1.00;12.30;99.90;;;;;;5073723;28;11499;-45
2022/03/20 10:23:39;;;;;;;;;2.25;1.00;12.30;99.90;;;;;;5079546;27;12222;-46
2022/03/20 10:26:11;;;;;;;;;1.00;1.00;12.20;99.90;;;;;;5085910;28;11471;-46
2022/03/20 10:28:43;;;;;;;;;0.25;0.25;12.20;99.90;;;;;;5066370;28;11501;-46
2022/03/20 10:31:23;;;;;;;;;1.25;1.25;12.10;99.90;;;;;;5062551;28;11494;-45
2022/03/20 10:34:04;;;;;;;;;1.00;1.00;12.10;99.90;;;;;;5076579;28;11491;-45
2022/03/20 10:36:35;;;;;;;;;1.00;1.00;12.00;99.90;;;;;;5075949;28;11482;-46
2022/03/20 10:39:16;;;;;;;;;1.00;1.00;12.00;99.90;;;;;;5073949;28;11557;-47
2022/03/20 10:41:47;;;;;;;;;0.00;0.00;12.00;99.90;;;;;;5075657;28;11500;-46
2022/03/20 10:44:32;;;;;;;;;1.00;1.00;12.00;99.90;;;;;;5065151;28;12069;-48
2022/03/20 10:47:13;;;;;;;;;0.50;0.50;12.00;99.90;;;;;;5075732;28;11508;-46
2022/03/20 10:50:02;;;;;;;;;0.00;0.00;12.00;99.90;;;;;;5078051;28;11512;-48
2022/03/20 10:52:35;;;;;;;;;0.00;0.00;11.90;99.90;;;;;;5073173;28;11483;-49
2022/03/20 10:55:13;;;;;;;;;0.00;0.00;11.90;99.90;;;;;;5075776;28;12203;-47
2022/03/20 10:57:43;;;;;;;;;0.00;0.00;11.80;99.90;;;;;;5070529;28;12251;-50
2022/03/20 11:00:14;;;;;;;;;1.50;0.00;11.80;99.90;;;;;;5067841;28;11482;-48
2022/03/20 11:02:44;;;;;;;;;1.00;1.00;11.80;99.90;;;;;;5063988;28;12243;-49
2022/03/20 11:05:14;;;;;;;;;0.00;0.00;11.80;99.90;;;;;;5079481;28;11495;-46
2022/03/20 11:07:45;;;;;;;;;0.25;0.25;11.80;99.90;;;;;;5075789;28;11474;-46
2022/03/20 11:10:17;;;;;;;;;0.00;0.00;11.80;99.90;;;;;;5070892;28;12299;-46
2022/03/20 11:12:47;;;;;;;;;0.00;0.00;11.80;99.90;;;;;;5067712;28;11543;-47
2022/03/20 11:15:19;;;;;;;;;0.50;0.00;11.80;99.90;;;;;;5068945;28;11634;-47
2022/03/20 11:17:58;;;;;;;;;0.00;0.00;11.80;99.90;;;;;;5072865;28;11531;-45
2022/03/20 11:20:30;;;;;;;;;0.00;0.00;11.80;99.90;;;;;;5069205;28;12349;-45
2022/03/20 11:23:04;;;;;;;;;0.00;0.00;11.80;99.90;;;;;;5073612;28;11486;-46
2022/03/20 11:25:38;;;;;;;;;1.00;1.00;11.80;99.90;;;;;;5069646;28;11581;-45
2022/03/20 11:28:10;;;;;;;;;0.00;0.00;11.70;99.90;;;;;;5076444;28;11481;-47
2022/03/20 11:30:44;;;;;;;;;0.00;0.00;11.70;99.90;;;;;;5073432;28;11515;-49
2022/03/20 11:33:19;;;;;;;;;0.00;0.00;11.70;99.90;;;;;;5067389;28;11468;-47
2022/03/20 11:35:50;;;;;;;;;0.50;0.50;11.70;99.90;;;;;;5071964;28;11533;-48
2022/03/20 11:38:24;;;;;;;;;1.00;1.00;11.70;99.90;;;;;;5073233;28;11491;-46
2022/03/20 11:41:17;;;;;;;;;3.50;3.50;11.60;99.90;;;;;;5069726;28;11567;-48
2022/03/20 11:44:21;;;;;;;;;7.25;7.25;11.70;99.90;;;;;;5073378;28;11532;-47
2022/03/20 11:47:21;;;;;;;;;14.25;14.25;11.70;99.90;;;;;;5067146;28;11654;-48
2022/03/20 11:50:09;;;;;;;;;31.67;31.67;11.60;99.90;;;;;;5067086;28;12284;-49
2022/03/20 11:53:06;;;;;;;;;26.00;26.00;11.60;99.90;;;;;;5073483;28;12286;-47
2022/03/20 11:55:40;;;;;;;;;24.50;24.50;11.50;99.90;;;;;;5074038;28;11665;-48
2022/03/20 11:58:36;;;;;;;;;24.50;24.50;11.50;99.90;;;;;;5069327;28;11614;-46
2022/03/20 12:01:12;;;;;;;;;29.25;27.50;11.50;99.90;;;;;;5069364;28;12330;-47
2022/03/20 12:04:13;;;;;;;;;27.75;25.75;11.50;99.90;;;;;;5070200;28;11537;-46
2022/03/20 12:07:14;;;;;;;;;20.50;20.50;11.40;99.90;;;;;;5071328;28;11534;-48
2022/03/20 12:10:02;;;;;;;;;7.75;7.75;11.40;99.90;;;;;;5068757;28;11554;-47
2022/03/20 12:12:44;;;;;;;;;6.00;6.00;11.30;99.90;;;;;;5068948;28;11564;-48
2022/03/20 12:15:19;;;;;;;;;6.00;6.00;11.30;99.90;;;;;;5067959;28;11688;-49
2022/03/20 12:18:01;;;;;;;;;2.75;2.75;11.30;99.90;;;;;;5069668;28;11562;-48
2022/03/20 12:20:59;;;;;;;;;0.00;0.00;11.20;99.90;;;;;;5068369;28;11536;-51
2022/03/20 12:23:43;;;;;;;;;1.00;1.00;11.20;99.90;;;;;;5084579;28;11511;-46
2022/03/20 12:26:34;;;;;;;;;0.00;0.00;11.20;99.90;;;;;;5075407;28;11608;-49
2022/03/20 12:29:27;;;;;;;;;2.25;1.00;11.20;99.90;;;;;;5078795;28;11481;-48
2022/03/20 12:31:59;;;;;;;;;0.75;0.75;11.10;99.90;;;;;;5072862;28;11502;-47
2022/03/20 12:34:30;;;;;;;;;0.00;0.00;11.10;99.90;;;;;;5071403;28;11456;-51
2022/03/20 12:37:29;;;;;;;;;0.00;0.00;11.10;99.90;;;;;;5082683;28;11497;-47
2022/03/20 12:40:03;;;;;;;;;0.75;0.75;11.10;99.90;;;;;;5077453;28;11487;-46
2022/03/20 12:42:36;;;;;;;;;2.25;0.75;11.00;99.90;;;;;;5071381;28;11534;-47
2022/03/20 12:45:09;;;;;;;;;1.00;1.00;11.00;99.90;;;;;;5077869;27;11506;-48
2022/03/20 12:47:54;;;;;;;;;1.00;1.00;11.00;99.90;;;;;;5068458;28;11543;-46
2022/03/20 12:50:26;;;;;;;;;1.00;1.00;11.00;99.90;;;;;;5077713;28;11479;-49
2022/03/20 12:53:24;;;;;;;;;1.00;1.00;11.00;99.90;;;;;;5076748;28;11504;-47
2022/03/20 12:56:01;;;;;;;;;0.00;0.00;10.90;99.90;;;;;;5077098;28;11594;-46
2022/03/20 12:58:32;;;;;;;;;0.50;0.50;10.90;99.90;;;;;;5076069;28;11492;-48
2022/03/20 13:01:11;;;;;;;;;0.50;0.50;10.90;99.90;;;;;;5072127;28;11888;-49
2022/03/20 13:03:42;;;;;;;;;1.00;1.00;10.80;99.90;;;;;;5077055;28;12251;-49
2022/03/20 13:06:14;;;;;;;;;1.00;1.00;10.70;99.90;;;;;;5075396;28;11460;-46
2022/03/20 13:08:48;;;;;;;;;0.00;0.00;10.70;99.90;;;;;;5089085;28;11492;-47
2022/03/20 13:14:14;;;;;;;;;2.50;1.00;10.70;99.90;;;;;;5072630;28;12374;-47
2022/03/20 13:16:56;;;;;;;;;0.00;0.00;10.80;99.90;;;;;;5078783;28;11994;-50
2022/03/20 13:19:33;;;;;;;;;0.25;0.25;10.80;99.90;;;;;;5088956;28;12249;-49
2022/03/20 13:22:06;;;;;;;;;1.00;1.00;10.80;99.90;;;;;;5068770;28;11476;-46
2022/03/20 13:24:41;;;;;;;;;0.00;0.00;10.70;99.90;;;;;;5078632;28;11517;-47
2022/03/20 13:27:11;;;;;;;;;1.00;1.00;10.70;99.90;;;;;;5077561;28;11464;-46
2022/03/20 13:29:53;;;;;;;;;1.00;1.00;10.70;99.90;;;;;;5074426;28;11532;-46
2022/03/20 13:32:22;;;;;;;;;0.00;0.00;10.60;99.90;;;;;;5070770;28;11539;-46
2022/03/20 13:34:54;;;;;;;;;3.00;1.00;10.60;99.90;;;;;;5072651;28;11485;-46
2022/03/20 13:37:24;;;;;;;;;1.00;1.00;10.50;99.90;;;;;;5072885;28;11619;-46
2022/03/20 13:39:55;;;;;;;;;0.75;0.75;10.50;99.90;;;;;;5074124;28;11569;-47
2022/03/20 13:42:30;;;;;;;;;0.00;0.00;10.50;99.90;;;;;;5082928;28;11612;-46
2022/03/20 13:45:02;;;;;;;;;0.00;0.00;10.50;99.90;;;;;;5075638;28;11567;-49
2022/03/20 13:47:35;;;;;;;;;1.50;1.50;10.50;99.90;;;;;;5074610;28;11500;-48
2022/03/20 13:50:05;;;;;;;;;0.00;0.00;10.40;99.90;;;;;;5079387;28;12277;-46
2022/03/20 13:52:38;;;;;;;;;0.00;0.00;10.40;99.90;;;;;;5069613;28;11476;-47
2022/03/20 13:55:11;;;;;;;;;0.00;0.00;10.30;99.90;;;;;;5076183;28;11495;-45
2022/03/20 13:57:59;;;;;;;;;0.00;0.00;10.40;99.90;;;;;;5074185;28;11431;-44